Bluefield, West Virginia
Current Conditions -  °F | °C
As of 6:52 PM on Monday 24 Nov 2014 (Local Time) from KBLF Reporting Station
Clear Clear  
Wind Chill: 16°   Ceiling: Unl
Heat Index: 16°   Visibility: 10mi
Dew Point:   Wind: 10mph
Humidity: 41%   Direction: 260°W
Pressure: 29.81"   Gusts: 23mph
Location:  37.27°N, 81.22°W
Report Text: KBLF 242352Z AUTO 26009G20KT 10SM CLR 16/03 A2981 RMK AO2 PK WND 26030/2300 SLP074 T01610028 10206 20161 51026
Loading
Personal Weather Stations






























Interactive Weather Map New forecast layout! Learn more

10-Day Weather Forecast

Advertisements
Track Severe Weather on mobile